sensor_id;sensor_type;location;lat;lon;timestamp;pressure;altitude;pressure_sealevel;temperature;humidity
78014;BME280;67222;50.182;8.734;2023-11-21T05:32:00;100030.25;;;8.62;100.00
78014;BME280;67222;50.182;8.734;2023-11-21T05:34:25;100034.97;;;8.60;100.00
78014;BME280;67222;50.182;8.734;2023-11-21T05:36:51;100041.50;;;8.64;100.00
78014;BME280;67222;50.182;8.734;2023-11-21T05:39:16;100042.53;;;8.63;100.00
78014;BME280;67222;50.182;8.734;2023-11-21T05:41:46;100043.56;;;8.69;100.00
78014;BME280;67222;50.182;8.734;2023-11-21T05:44:12;100034.78;;;8.68;100.00
78014;BME280;67222;50.182;8.734;2023-11-21T05:46:39;100040.91;;;8.69;100.00
78014;BME280;67222;50.182;8.734;2023-11-21T05:49:05;100057.25;;;8.66;100.00
78014;BME280;67222;50.182;8.734;2023-11-21T05:51:31;100051.53;;;8.62;100.00
78014;BME280;67222;50.182;8.734;2023-11-21T05:53:56;100053.97;;;8.64;100.00
78014;BME280;67222;50.182;8.734;2023-11-21T05:56:21;100053.97;;;8.64;100.00
78014;BME280;67222;50.182;8.734;2023-11-21T05:58:47;100056.84;;;8.62;100.00
78014;BME280;67222;50.182;8.734;2023-11-21T06:01:12;100057.25;;;8.66;100.00
78014;BME280;67222;50.182;8.734;2023-11-21T06:03:38;100062.56;;;8.66;100.00
78014;BME280;67222;50.182;8.734;2023-11-21T06:06:04;100063.38;;;8.60;100.00
78014;BME280;67222;50.182;8.734;2023-11-21T06:08:29;100065.44;;;8.64;100.00
78014;BME280;67222;50.182;8.734;2023-11-21T06:10:55;100074.44;;;8.63;100.00
78014;BME280;67222;50.182;8.734;2023-11-21T06:13:20;100075.44;;;8.56;100.00
78014;BME280;67222;50.182;8.734;2023-11-21T06:15:49;100082.97;;;8.52;100.00
78014;BME280;67222;50.182;8.734;2023-11-21T06:18:15;100083.16;;;8.50;100.00
78014;BME280;67222;50.182;8.734;2023-11-21T06:20:40;100090.13;;;8.52;100.00
78014;BME280;67222;50.182;8.734;2023-11-21T06:23:06;100088.88;;;8.47;100.00
78014;BME280;67222;50.182;8.734;2023-11-21T06:25:31;100099.09;;;8.50;100.00
78014;BME280;67222;50.182;8.734;2023-11-21T06:28:01;100096.03;;;8.47;100.00
78014;BME280;67222;50.182;8.734;2023-11-21T06:30:26;100099.28;;;8.42;100.00
78014;BME280;67222;50.182;8.734;2023-11-21T06:32:51;100103.78;;;8.42;100.00
78014;BME280;67222;50.182;8.734;2023-11-21T06:35:17;100106.84;;;8.39;100.00
78014;BME280;67222;50.182;8.734;2023-11-21T06:37:42;100115.00;;;8.37;100.00
78014;BME280;67222;50.182;8.734;2023-11-21T06:40:13;100116.03;;;8.43;100.00
78014;BME280;67222;50.182;8.734;2023-11-21T06:42:40;100117.88;;;8.42;100.00
78014;BME280;67222;50.182;8.734;2023-11-21T06:45:06;100127.28;;;8.45;100.00
78014;BME280;67222;50.182;8.734;2023-11-21T06:47:32;100124.84;;;8.43;100.00
78014;BME280;67222;50.182;8.734;2023-11-21T06:49:58;100132.00;;;8.43;100.00
78014;BME280;67222;50.182;8.734;2023-11-21T06:52:24;100138.75;;;8.45;100.00
78014;BME280;67222;50.182;8.734;2023-11-21T06:54:49;100140.78;;;8.43;100.00
78014;BME280;67222;50.182;8.734;2023-11-21T06:57:15;100140.59;;;8.45;100.00
78014;BME280;67222;50.182;8.734;2023-11-21T06:59:40;100145.66;;;8.40;100.00
78014;BME280;67222;50.182;8.734;2023-11-21T07:02:06;100152.81;;;8.39;100.00
78014;BME280;67222;50.182;8.734;2023-11-21T07:04:34;100157.41;;;8.24;100.00
78014;BME280;67222;50.182;8.734;2023-11-21T07:07:00;100158.41;;;8.23;100.00
78014;BME280;67222;50.182;8.734;2023-11-21T07:09:25;100155.16;;;8.28;100.00
78014;BME280;67222;50.182;8.734;2023-11-21T07:11:53;100166.22;;;8.31;100.00
78014;BME280;67222;50.182;8.734;2023-11-21T07:14:19;100167.13;;;8.17;100.00
78014;BME280;67222;50.182;8.734;2023-11-21T07:16:45;100179.66;;;8.23;100.00
78014;BME280;67222;50.182;8.734;2023-11-21T07:19:11;100179.06;;;8.28;100.00
78014;BME280;67222;50.182;8.734;2023-11-21T07:21:37;100184.81;;;8.31;100.00
78014;BME280;67222;50.182;8.734;2023-11-21T07:24:03;100191.31;;;8.22;100.00
78014;BME280;67222;50.182;8.734;2023-11-21T07:26:30;100193.13;;;8.22;100.00
78014;BME280;67222;50.182;8.734;2023-11-21T07:28:55;100197.88;;;8.26;100.00
78014;BME280;67222;50.182;8.734;2023-11-21T07:31:23;100198.84;;;8.18;100.00
78014;BME280;67222;50.182;8.734;2023-11-21T07:33:50;100194.34;;;8.19;100.00
78014;BME280;67222;50.182;8.734;2023-11-21T07:36:16;100198.06;;;8.25;100.00
78014;BME280;67222;50.182;8.734;2023-11-21T07:38:43;100203.78;;;8.28;100.00
78014;BME280;67222;50.182;8.734;2023-11-21T07:41:10;100208.09;;;8.29;100.00
78014;BME280;67222;50.182;8.734;2023-11-21T07:43:35;100209.19;;;8.35;100.00
78014;BME280;67222;50.182;8.734;2023-11-21T07:46:02;100205.03;;;8.32;100.00
78014;BME280;67222;50.182;8.734;2023-11-21T07:48:30;100211.19;;;8.33;100.00
78014;BME280;67222;50.182;8.734;2023-11-21T07:50:57;100206.78;;;8.40;100.00
78014;BME280;67222;50.182;8.734;2023-11-21T07:53:23;100216.19;;;8.42;100.00
78014;BME280;67222;50.182;8.734;2023-11-21T07:55:50;100217.84;;;8.43;100.00
78014;BME280;67222;50.182;8.734;2023-11-21T07:58:15;100220.25;;;8.38;100.00
78014;BME280;67222;50.182;8.734;2023-11-21T08:00:41;100220.69;;;8.42;100.00
78014;BME280;67222;50.182;8.734;2023-11-21T08:03:07;100233.00;;;8.49;100.00
78014;BME280;67222;50.182;8.734;2023-11-21T08:05:32;100230.31;;;8.49;100.00
78014;BME280;67222;50.182;8.734;2023-11-21T08:07:57;100230.69;;;8.40;100.00
78014;BME280;67222;50.182;8.734;2023-11-21T08:10:23;100234.44;;;8.52;100.00
78014;BME280;67222;50.182;8.734;2023-11-21T08:12:48;100239.13;;;8.50;100.00
78014;BME280;67222;50.182;8.734;2023-11-21T08:15:15;100244.25;;;8.52;100.00
78014;BME280;67222;50.182;8.734;2023-11-21T08:17:40;100240.97;;;8.49;100.00
78014;BME280;67222;50.182;8.734;2023-11-21T08:20:06;100245.41;;;8.42;100.00
78014;BME280;67222;50.182;8.734;2023-11-21T08:22:33;100251.78;;;8.48;100.00
78014;BME280;67222;50.182;8.734;2023-11-21T08:24:59;100253.44;;;8.49;100.00
78014;BME280;67222;50.182;8.734;2023-11-21T08:27:24;100259.16;;;8.53;100.00
78014;BME280;67222;50.182;8.734;2023-11-21T08:29:50;100262.44;;;8.55;100.00
78014;BME280;67222;50.182;8.734;2023-11-21T08:32:17;100254.53;;;8.61;100.00
78014;BME280;67222;50.182;8.734;2023-11-21T08:34:43;100266.38;;;8.59;100.00
78014;BME280;67222;50.182;8.734;2023-11-21T08:37:09;100263.75;;;8.65;100.00
78014;BME280;67222;50.182;8.734;2023-11-21T08:39:36;100264.56;;;8.66;100.00
78014;BME280;67222;50.182;8.734;2023-11-21T08:42:03;100277.03;;;8.65;100.00
78014;BME280;67222;50.182;8.734;2023-11-21T08:44:28;100267.00;;;8.61;99.97
78014;BME280;67222;50.182;8.734;2023-11-21T08:46:53;100262.72;;;8.60;100.00
78014;BME280;67222;50.182;8.734;2023-11-21T08:49:19;100273.56;;;8.65;100.00
78014;BME280;67222;50.182;8.734;2023-11-21T08:51:44;100273.53;;;8.58;100.00
78014;BME280;67222;50.182;8.734;2023-11-21T08:54:09;100278.66;;;8.60;100.00
78014;BME280;67222;50.182;8.734;2023-11-21T08:56:37;100283.97;;;8.60;100.00
78014;BME280;67222;50.182;8.734;2023-11-21T08:59:02;100283.38;;;8.64;99.77
78014;BME280;67222;50.182;8.734;2023-11-21T09:01:29;100299.31;;;8.64;98.98
78014;BME280;67222;50.182;8.734;2023-11-21T09:03:57;100298.91;;;8.61;98.79
78014;BME280;67222;50.182;8.734;2023-11-21T09:06:22;100300.34;;;8.63;99.61
78014;BME280;67222;50.182;8.734;2023-11-21T09:08:48;100312.81;;;8.63;99.20
78014;BME280;67222;50.182;8.734;2023-11-21T09:11:13;100309.34;;;8.62;98.80
78014;BME280;67222;50.182;8.734;2023-11-21T09:13:38;100313.00;;;8.61;99.06
78014;BME280;67222;50.182;8.734;2023-11-21T09:16:04;100313.63;;;8.63;99.02
78014;BME280;67222;50.182;8.734;2023-11-21T09:18:30;100311.09;;;8.55;98.12
78014;BME280;67222;50.182;8.734;2023-11-21T09:20:56;100328.53;;;8.58;97.46
78014;BME280;67222;50.182;8.734;2023-11-21T09:23:21;100320.50;;;8.51;97.44
78014;BME280;67222;50.182;8.734;2023-11-21T09:25:46;100325.56;;;8.46;97.27
78014;BME280;67222;50.182;8.734;2023-11-21T09:28:15;100331.03;;;8.38;97.50
78014;BME280;67222;50.182;8.734;2023-11-21T09:30:40;100325.53;;;8.39;97.49
78014;BME280;67222;50.182;8.734;2023-11-21T09:33:05;100331.91;;;8.45;98.04
78014;BME280;67222;50.182;8.734;2023-11-21T09:35:32;100335.59;;;8.50;97.91
78014;BME280;67222;50.182;8.734;2023-11-21T09:37:57;100330.59;;;8.62;97.24
78014;BME280;67222;50.182;8.734;2023-11-21T09:40:23;100331.06;;;8.72;96.61
78014;BME280;67222;50.182;8.734;2023-11-21T09:42:55;100336.69;;;8.84;96.86
78014;BME280;67222;50.182;8.734;2023-11-21T09:45:26;100329.75;;;8.90;98.16
78014;BME280;67222;50.182;8.734;2023-11-21T09:47:54;100345.97;;;8.95;97.21
78014;BME280;67222;50.182;8.734;2023-11-21T09:50:21;100344.97;;;9.02;96.52
78014;BME280;67222;50.182;8.734;2023-11-21T09:53:13;100342.16;;;9.10;96.74
78014;BME280;67222;50.182;8.734;2023-11-21T09:55:44;100349.75;;;9.14;95.24
78014;BME280;67222;50.182;8.734;2023-11-21T09:58:10;100350.84;;;9.26;95.39
78014;BME280;67222;50.182;8.734;2023-11-21T10:00:40;100350.44;;;9.29;94.37
78014;BME280;67222;50.182;8.734;2023-11-21T10:03:06;100348.66;;;9.36;95.43
78014;BME280;67222;50.182;8.734;2023-11-21T10:05:32;100348.47;;;9.44;93.68
78014;BME280;67222;50.182;8.734;2023-11-21T10:07:59;100346.06;;;9.56;92.79
78014;BME280;67222;50.182;8.734;2023-11-21T10:10:25;100340.97;;;9.61;92.86
78014;BME280;67222;50.182;8.734;2023-11-21T10:12:55;100341.00;;;9.67;91.34
78014;BME280;67222;50.182;8.734;2023-11-21T10:15:22;100351.66;;;9.74;89.34
78014;BME280;67222;50.182;8.734;2023-11-21T10:17:49;100355.56;;;9.85;90.04
78014;BME280;67222;50.182;8.734;2023-11-21T10:20:14;100353.94;;;9.84;89.61
78014;BME280;67222;50.182;8.734;2023-11-21T10:22:41;100360.94;;;9.98;90.01
78014;BME280;67222;50.182;8.734;2023-11-21T10:25:08;100362.63;;;10.06;90.08
78014;BME280;67222;50.182;8.734;2023-11-21T10:27:34;100370.41;;;10.14;89.94
78014;BME280;67222;50.182;8.734;2023-11-21T10:30:02;100373.13;;;10.27;89.34
78014;BME280;67222;50.182;8.734;2023-11-21T10:32:28;100375.38;;;10.37;88.74
78014;BME280;67222;50.182;8.734;2023-11-21T10:34:57;100373.56;;;10.50;88.76
78014;BME280;67222;50.182;8.734;2023-11-21T10:37:22;100376.84;;;10.59;89.19
78014;BME280;67222;50.182;8.734;2023-11-21T10:39:48;100373.75;;;10.75;89.27
78014;BME280;67222;50.182;8.734;2023-11-21T10:42:14;100362.66;;;10.78;88.58
78014;BME280;67222;50.182;8.734;2023-11-21T10:44:41;100371.50;;;10.99;86.38
78014;BME280;67222;50.182;8.734;2023-11-21T10:47:08;100361.03;;;11.04;86.49
78014;BME280;67222;50.182;8.734;2023-11-21T10:49:33;100367.78;;;11.06;85.55
78014;BME280;67222;50.182;8.734;2023-11-21T10:51:59;100371.19;;;11.33;86.67
78014;BME280;67222;50.182;8.734;2023-11-21T10:54:25;100365.63;;;11.48;85.24
78014;BME280;67222;50.182;8.734;2023-11-21T10:56:59;100363.88;;;11.73;84.04
78014;BME280;67222;50.182;8.734;2023-11-21T10:59:28;100357.81;;;11.98;81.93
78014;BME280;67222;50.182;8.734;2023-11-21T11:01:55;100359.56;;;12.42;81.88
78014;BME280;67222;50.182;8.734;2023-11-21T11:04:22;100357.19;;;12.59;80.75
78014;BME280;67222;50.182;8.734;2023-11-21T11:06:54;100363.34;;;12.59;78.24
78014;BME280;67222;50.182;8.734;2023-11-21T11:09:21;100359.38;;;12.68;80.86
78014;BME280;67222;50.182;8.734;2023-11-21T11:11:47;100363.72;;;12.38;76.75
78014;BME280;67222;50.182;8.734;2023-11-21T11:14:13;100368.47;;;12.36;77.54
78014;BME280;67222;50.182;8.734;2023-11-21T11:16:40;100368.53;;;12.29;77.02
78014;BME280;67222;50.182;8.734;2023-11-21T11:19:09;100371.44;;;12.21;77.40
78014;BME280;67222;50.182;8.734;2023-11-21T11:27:15;100370.09;;;12.05;80.31
78014;BME280;67222;50.182;8.734;2023-11-21T11:30:07;100357.00;;;11.97;80.41
78014;BME280;67222;50.182;8.734;2023-11-21T11:35:25;100362.41;;;11.84;79.95
78014;BME280;67222;50.182;8.734;2023-11-21T11:37:52;100361.59;;;11.77;79.16
78014;BME280;67222;50.182;8.734;2023-11-21T11:40:18;100365.47;;;11.88;80.56
78014;BME280;67222;50.182;8.734;2023-11-21T11:42:57;100364.63;;;11.94;78.63
78014;BME280;67222;50.182;8.734;2023-11-21T11:45:32;100367.91;;;11.96;77.60
78014;BME280;67222;50.182;8.734;2023-11-21T11:47:59;100360.56;;;11.85;80.65
78014;BME280;67222;50.182;8.734;2023-11-21T11:50:25;100373.94;;;11.78;79.78
78014;BME280;67222;50.182;8.734;2023-11-21T11:52:54;100364.91;;;11.79;78.27
78014;BME280;67222;50.182;8.734;2023-11-21T11:55:23;100371.41;;;11.96;78.65
78014;BME280;67222;50.182;8.734;2023-11-21T11:57:52;100373.47;;;11.88;78.30
78014;BME280;67222;50.182;8.734;2023-11-21T12:00:42;100371.13;;;12.04;75.78
78014;BME280;67222;50.182;8.734;2023-11-21T12:03:08;100368.72;;;11.96;77.57
78014;BME280;67222;50.182;8.734;2023-11-21T12:05:35;100365.41;;;12.01;78.19
78014;BME280;67222;50.182;8.734;2023-11-21T12:08:05;100376.69;;;12.03;79.39
78014;BME280;67222;50.182;8.734;2023-11-21T12:10:33;100372.59;;;12.00;78.34
78014;BME280;67222;50.182;8.734;2023-11-21T12:13:19;100380.47;;;11.89;76.85
78014;BME280;67222;50.182;8.734;2023-11-21T12:15:44;100376.56;;;11.91;79.02
78014;BME280;67222;50.182;8.734;2023-11-21T12:18:11;100383.59;;;11.79;78.48
78014;BME280;67222;50.182;8.734;2023-11-21T12:20:36;100385.25;;;11.67;79.33
78014;BME280;67222;50.182;8.734;2023-11-21T12:23:04;100392.66;;;11.65;78.52
78014;BME280;67222;50.182;8.734;2023-11-21T12:25:31;100391.13;;;11.37;81.00
78014;BME280;67222;50.182;8.734;2023-11-21T12:28:01;100395.06;;;11.21;80.95
78014;BME280;67222;50.182;8.734;2023-11-21T12:30:29;100394.25;;;11.14;81.51
78014;BME280;67222;50.182;8.734;2023-11-21T12:32:59;100400.22;;;10.97;81.36
78014;BME280;67222;50.182;8.734;2023-11-21T12:35:29;100397.34;;;10.91;81.59
78014;BME280;67222;50.182;8.734;2023-11-21T12:37:56;100407.19;;;10.91;82.42
78014;BME280;67222;50.182;8.734;2023-11-21T12:40:24;100404.16;;;10.81;81.91
78014;BME280;67222;50.182;8.734;2023-11-21T12:42:58;100403.50;;;10.72;82.25
78014;BME280;67222;50.182;8.734;2023-11-21T12:45:28;100415.22;;;10.71;82.07
78014;BME280;67222;50.182;8.734;2023-11-21T12:48:00;100407.81;;;10.73;81.68
78014;BME280;67222;50.182;8.734;2023-11-21T12:50:29;100416.22;;;10.77;81.85
78014;BME280;67222;50.182;8.734;2023-11-21T12:53:03;100419.31;;;10.80;81.56
78014;BME280;67222;50.182;8.734;2023-11-21T12:55:31;100421.38;;;10.85;81.94
78014;BME280;67222;50.182;8.734;2023-11-21T12:57:57;100435.53;;;10.92;81.85
78014;BME280;67222;50.182;8.734;2023-11-21T13:00:32;100431.00;;;10.86;81.67
78014;BME280;67222;50.182;8.734;2023-11-21T13:02:59;100426.06;;;10.96;81.16
78014;BME280;67222;50.182;8.734;2023-11-21T13:05:32;100432.66;;;11.00;82.11
78014;BME280;67222;50.182;8.734;2023-11-21T13:08:00;100433.06;;;11.04;82.55
78014;BME280;67222;50.182;8.734;2023-11-21T13:10:29;100431.41;;;11.03;80.72
78014;BME280;67222;50.182;8.734;2023-11-21T13:12:59;100430.38;;;11.17;80.98
78014;BME280;67222;50.182;8.734;2023-11-21T13:15:28;100431.41;;;11.16;80.92
78014;BME280;67222;50.182;8.734;2023-11-21T13:17:57;100428.94;;;11.34;81.30
78014;BME280;67222;50.182;8.734;2023-11-21T13:20:26;100438.94;;;11.45;81.58
78014;BME280;67222;50.182;8.734;2023-11-21T13:22:54;100443.06;;;11.55;80.81
78014;BME280;67222;50.182;8.734;2023-11-21T13:25:25;100446.94;;;11.52;78.99
78014;BME280;67222;50.182;8.734;2023-11-21T13:27:55;100439.97;;;11.44;79.90
78014;BME280;67222;50.182;8.734;2023-11-21T13:30:22;100443.66;;;11.50;79.99
78014;BME280;67222;50.182;8.734;2023-11-21T13:32:59;100444.94;;;11.41;80.08
78014;BME280;67222;50.182;8.734;2023-11-21T13:35:30;100449.25;;;11.22;81.73
78014;BME280;67222;50.182;8.734;2023-11-21T13:38:08;100458.53;;;11.00;81.88
78014;BME280;67222;50.182;8.734;2023-11-21T13:40:34;100459.13;;;10.88;82.08
78014;BME280;67222;50.182;8.734;2023-11-21T13:43:05;100463.00;;;10.66;83.16
78014;BME280;67222;50.182;8.734;2023-11-21T13:45:35;100464.25;;;10.64;84.41
78014;BME280;67222;50.182;8.734;2023-11-21T13:48:00;100468.09;;;10.54;85.47
78014;BME280;67222;50.182;8.734;2023-11-21T13:50:26;100473.63;;;10.46;85.76
78014;BME280;67222;50.182;8.734;2023-11-21T13:53:00;100479.94;;;10.32;87.58
78014;BME280;67222;50.182;8.734;2023-11-21T13:55:34;100483.03;;;10.29;87.93
78014;BME280;67222;50.182;8.734;2023-11-21T13:58:00;100485.06;;;10.27;88.54
78014;BME280;67222;50.182;8.734;2023-11-21T14:00:27;100484.81;;;10.22;90.08
78014;BME280;67222;50.182;8.734;2023-11-21T14:03:11;100481.50;;;10.20;90.54
78014;BME280;67222;50.182;8.734;2023-11-21T14:05:47;100479.84;;;10.12;89.72
78014;BME280;67222;50.182;8.734;2023-11-21T14:08:18;100492.72;;;10.02;90.10
78014;BME280;67222;50.182;8.734;2023-11-21T14:10:45;100487.78;;;9.99;90.32
78014;BME280;67222;50.182;8.734;2023-11-21T14:13:16;100485.13;;;9.99;91.34
78014;BME280;67222;50.182;8.734;2023-11-21T14:15:42;100499.69;;;10.03;90.97
78014;BME280;67222;50.182;8.734;2023-11-21T14:18:10;100489.47;;;10.07;90.75
78014;BME280;67222;50.182;8.734;2023-11-21T14:20:37;100489.81;;;9.97;91.85
78014;BME280;67222;50.182;8.734;2023-11-21T14:23:03;100499.03;;;9.88;92.19
78014;BME280;67222;50.182;8.734;2023-11-21T14:25:32;100491.44;;;9.91;91.65
78014;BME280;67222;50.182;8.734;2023-11-21T14:27:58;100493.09;;;9.92;92.10
78014;BME280;67222;50.182;8.734;2023-11-21T14:30:24;100498.63;;;9.97;92.03
78014;BME280;67222;50.182;8.734;2023-11-21T14:32:50;100498.50;;;10.06;93.57
78014;BME280;67222;50.182;8.734;2023-11-21T14:35:16;100501.97;;;10.06;93.67
78014;BME280;67222;50.182;8.734;2023-11-21T14:37:43;100503.16;;;9.97;92.40
78014;BME280;67222;50.182;8.734;2023-11-21T14:40:09;100505.81;;;9.97;92.93
78014;BME280;67222;50.182;8.734;2023-11-21T14:42:34;100503.53;;;9.94;93.96
78014;BME280;67222;50.182;8.734;2023-11-21T14:45:03;100509.28;;;9.91;94.32
78014;BME280;67222;50.182;8.734;2023-11-21T14:47:32;100504.09;;;9.83;93.85
78014;BME280;67222;50.182;8.734;2023-11-21T14:49:57;100513.31;;;9.80;93.45
78014;BME280;67222;50.182;8.734;2023-11-21T14:52:25;100513.53;;;9.85;94.14
78014;BME280;67222;50.182;8.734;2023-11-21T14:55:04;100514.53;;;9.84;94.15
78014;BME280;67222;50.182;8.734;2023-11-21T14:57:47;100520.75;;;9.91;94.75
78014;BME280;67222;50.182;8.734;2023-11-21T15:00:19;100518.31;;;9.96;94.07
78014;BME280;67222;50.182;8.734;2023-11-21T15:03:04;100528.16;;;9.96;94.19
78014;BME280;67222;50.182;8.734;2023-11-21T15:05:29;100529.97;;;9.95;94.34
78014;BME280;67222;50.182;8.734;2023-11-21T15:07:55;100540.00;;;9.93;94.25
78014;BME280;67222;50.182;8.734;2023-11-21T15:10:24;100544.53;;;9.93;93.41
78014;BME280;67222;50.182;8.734;2023-11-21T15:13:03;100541.25;;;9.91;93.33
78014;BME280;67222;50.182;8.734;2023-11-21T15:15:29;100546.56;;;9.91;94.11
78014;BME280;67222;50.182;8.734;2023-11-21T15:17:56;100549.44;;;9.96;94.15
78014;BME280;67222;50.182;8.734;2023-11-21T15:20:22;100542.28;;;9.96;93.46
78014;BME280;67222;50.182;8.734;2023-11-21T15:22:47;100544.53;;;9.93;92.75
78014;BME280;67222;50.182;8.734;2023-11-21T15:25:13;100551.88;;;9.91;92.47
78014;BME280;67222;50.182;8.734;2023-11-21T15:27:38;100540.22;;;9.92;93.22
78014;BME280;67222;50.182;8.734;2023-11-21T15:30:05;100546.38;;;9.92;93.46
78014;BME280;67222;50.182;8.734;2023-11-21T15:32:30;100547.97;;;9.87;92.54
78014;BME280;67222;50.182;8.734;2023-11-21T15:34:56;100553.66;;;9.84;92.50
78014;BME280;67222;50.182;8.734;2023-11-21T15:37:21;100554.31;;;9.86;93.62
78014;BME280;67222;50.182;8.734;2023-11-21T15:39:46;100555.31;;;9.85;93.19
78014;BME280;67222;50.182;8.734;2023-11-21T15:42:12;100559.25;;;9.89;92.28
78014;BME280;67222;50.182;8.734;2023-11-21T15:44:37;100553.47;;;9.85;93.27
78014;BME280;67222;50.182;8.734;2023-11-21T15:47:04;100569.63;;;9.77;93.88
78014;BME280;67222;50.182;8.734;2023-11-21T15:49:30;100568.56;;;9.71;94.47
78014;BME280;67222;50.182;8.734;2023-11-21T15:51:59;100577.97;;;9.67;95.58
78014;BME280;67222;50.182;8.734;2023-11-21T15:54:25;100573.47;;;9.68;95.23
78014;BME280;67222;50.182;8.734;2023-11-21T15:56:52;100573.81;;;9.65;95.54
78014;BME280;67222;50.182;8.734;2023-11-21T15:59:20;100581.78;;;9.58;95.83
78014;BME280;67222;50.182;8.734;2023-11-21T16:01:45;100584.28;;;9.66;97.14
78014;BME280;67222;50.182;8.734;2023-11-21T16:04:14;100580.63;;;9.67;96.93
78014;BME280;67222;50.182;8.734;2023-11-21T16:06:46;100591.28;;;9.67;96.51
78014;BME280;67222;50.182;8.734;2023-11-21T16:09:12;100584.25;;;9.60;96.72
78014;BME280;67222;50.182;8.734;2023-11-21T16:11:50;100583.41;;;9.59;96.22
78014;BME280;67222;50.182;8.734;2023-11-21T16:14:19;100587.72;;;9.60;96.60
78014;BME280;67222;50.182;8.734;2023-11-21T16:16:49;100594.47;;;9.56;96.48
78014;BME280;67222;50.182;8.734;2023-11-21T16:19:15;100594.25;;;9.58;96.74
78014;BME280;67222;50.182;8.734;2023-11-21T16:21:40;100598.78;;;9.57;96.85
78014;BME280;67222;50.182;8.734;2023-11-21T16:24:06;100607.38;;;9.59;96.86
78014;BME280;67222;50.182;8.734;2023-11-21T16:26:31;100603.06;;;9.58;96.94
78014;BME280;67222;50.182;8.734;2023-11-21T16:28:57;100617.41;;;9.57;95.99
78014;BME280;67222;50.182;8.734;2023-11-21T16:31:23;100608.47;;;9.44;95.86
78014;BME280;67222;50.182;8.734;2023-11-21T16:33:48;100610.00;;;9.53;96.36
78014;BME280;67222;50.182;8.734;2023-11-21T16:36:14;100619.81;;;9.52;96.33
78014;BME280;67222;50.182;8.734;2023-11-21T16:38:39;100611.44;;;9.55;96.60
78014;BME280;67222;50.182;8.734;2023-11-21T16:41:04;100614.53;;;9.59;96.19
78014;BME280;67222;50.182;8.734;2023-11-21T16:43:30;100629.84;;;9.50;95.95
78014;BME280;67222;50.182;8.734;2023-11-21T16:45:56;100633.88;;;9.46;95.68
78014;BME280;67222;50.182;8.734;2023-11-21T16:48:21;100634.34;;;9.50;96.37
78014;BME280;67222;50.182;8.734;2023-11-21T16:50:46;100646.94;;;9.41;97.30
78014;BME280;67222;50.182;8.734;2023-11-21T16:53:12;100648.53;;;9.35;98.36
78014;BME280;67222;50.182;8.734;2023-11-21T16:55:37;100647.72;;;9.35;97.77
78014;BME280;67222;50.182;8.734;2023-11-21T16:58:02;100655.31;;;9.38;98.58
78014;BME280;67222;50.182;8.734;2023-11-21T17:00:27;100658.84;;;9.24;98.67
78014;BME280;67222;50.182;8.734;2023-11-21T17:02:53;100665.00;;;9.24;99.00
78014;BME280;67222;50.182;8.734;2023-11-21T17:05:18;100656.56;;;9.21;99.83
78014;BME280;67222;50.182;8.734;2023-11-21T17:07:47;100664.13;;;9.17;99.59
78014;BME280;67222;50.182;8.734;2023-11-21T17:10:13;100664.16;;;9.24;99.25
78014;BME280;67222;50.182;8.734;2023-11-21T17:12:38;100669.31;;;9.25;99.98
78014;BME280;67222;50.182;8.734;2023-11-21T17:15:04;100679.13;;;9.25;99.58
78014;BME280;67222;50.182;8.734;2023-11-21T17:17:30;100680.84;;;9.11;99.59
78014;BME280;67222;50.182;8.734;2023-11-21T17:19:56;100668.03;;;9.21;99.91
78014;BME280;67222;50.182;8.734;2023-11-21T17:22:22;100677.41;;;9.17;99.61
78014;BME280;67222;50.182;8.734;2023-11-21T17:24:47;100683.56;;;9.18;99.85
78014;BME280;67222;50.182;8.734;2023-11-21T17:27:13;100690.63;;;9.10;99.61
78014;BME280;67222;50.182;8.734;2023-11-21T17:29:38;100695.94;;;9.10;99.45
78014;BME280;67222;50.182;8.734;2023-11-21T17:32:04;100693.47;;;9.09;100.00
78014;BME280;67222;50.182;8.734;2023-11-21T17:34:30;100694.13;;;9.11;99.99
78014;BME280;67222;50.182;8.734;2023-11-21T17:36:55;100696.13;;;9.09;100.00
78014;BME280;67222;50.182;8.734;2023-11-21T17:39:21;100709.25;;;9.10;100.00
78014;BME280;67222;50.182;8.734;2023-11-21T17:41:46;100712.09;;;9.09;100.00
78014;BME280;67222;50.182;8.734;2023-11-21T17:44:12;100712.56;;;9.13;100.00
78014;BME280;67222;50.182;8.734;2023-11-21T17:46:38;100707.97;;;9.06;100.00
78014;BME280;67222;50.182;8.734;2023-11-21T17:49:03;100717.34;;;9.02;100.00
78014;BME280;67222;50.182;8.734;2023-11-21T17:51:29;100711.91;;;9.10;100.00
78014;BME280;67222;50.182;8.734;2023-11-21T17:53:55;100715.41;;;9.11;100.00
78014;BME280;67222;50.182;8.734;2023-11-21T17:56:26;100722.19;;;9.14;100.00
78014;BME280;67222;50.182;8.734;2023-11-21T17:58:51;100722.03;;;9.00;100.00
78014;BME280;67222;50.182;8.734;2023-11-21T18:01:19;100723.56;;;9.09;100.00
78014;BME280;67222;50.182;8.734;2023-11-21T18:03:45;100738.06;;;9.07;99.53
78014;BME280;67222;50.182;8.734;2023-11-21T18:06:11;100731.91;;;9.06;99.32
78014;BME280;67222;50.182;8.734;2023-11-21T18:08:38;100742.50;;;9.00;99.03
78014;BME280;67222;50.182;8.734;2023-11-21T18:11:05;100743.41;;;8.92;98.94
78014;BME280;67222;50.182;8.734;2023-11-21T18:13:31;100753.78;;;8.87;98.79
78014;BME280;67222;50.182;8.734;2023-11-21T18:15:56;100756.97;;;8.68;97.08
78014;BME280;67222;50.182;8.734;2023-11-21T18:18:21;100759.94;;;8.58;96.77
78014;BME280;67222;50.182;8.734;2023-11-21T18:20:47;100762.66;;;8.50;96.05
78014;BME280;67222;50.182;8.734;2023-11-21T18:23:12;100778.50;;;8.43;96.27
78014;BME280;67222;50.182;8.734;2023-11-21T18:25:38;100780.22;;;8.36;95.98
78014;BME280;67222;50.182;8.734;2023-11-21T18:28:06;100786.59;;;8.27;95.69
78014;BME280;67222;50.182;8.734;2023-11-21T18:30:33;100786.84;;;8.17;94.56
78014;BME280;67222;50.182;8.734;2023-11-21T18:32:58;100788.66;;;8.17;93.83
78014;BME280;67222;50.182;8.734;2023-11-21T18:35:24;100793.88;;;8.10;92.95